sensor_id;sensor_type;location;lat;lon;timestamp;pressure;altitude;pressure_sealevel;temperature;humidity
52839;BME280;39219;53.678;9.856;2023-04-15T00:01:04;76832.31;;;-147.77;89.09
52839;BME280;39219;53.678;9.856;2023-04-15T00:03:31;76836.38;;;-147.77;89.33
52839;BME280;39219;53.678;9.856;2023-04-15T00:05:58;76834.34;;;-147.77;89.20
52839;BME280;39219;53.678;9.856;2023-04-15T00:08:27;76840.41;;;-147.77;89.24
52839;BME280;39219;53.678;9.856;2023-04-15T00:10:54;76828.28;;;-147.77;90.13
52839;BME280;39219;53.678;9.856;2023-04-15T00:13:20;76828.28;;;-147.77;90.16
52839;BME280;39219;53.678;9.856;2023-04-15T00:15:47;76826.25;;;-147.77;90.37
52839;BME280;39219;53.678;9.856;2023-04-15T00:18:13;76830.28;;;-147.77;90.73
52839;BME280;39219;53.678;9.856;2023-04-15T00:20:39;76832.31;;;-147.77;90.84
52839;BME280;39219;53.678;9.856;2023-04-15T00:23:06;76826.25;;;-147.77;91.07
52839;BME280;39219;53.678;9.856;2023-04-15T00:25:34;76830.28;;;-147.77;91.46
52839;BME280;39219;53.678;9.856;2023-04-15T00:28:00;76818.16;;;-147.77;91.73
52839;BME280;39219;53.678;9.856;2023-04-15T00:30:28;76832.31;;;-147.77;91.76
52839;BME280;39219;53.678;9.856;2023-04-15T00:32:54;76820.19;;;-147.77;92.47
52839;BME280;39219;53.678;9.856;2023-04-15T00:35:20;76824.22;;;-147.77;92.73
52839;BME280;39219;53.678;9.856;2023-04-15T00:37:48;76822.19;;;-147.77;92.81
52839;BME280;39219;53.678;9.856;2023-04-15T00:40:16;76816.13;;;-147.77;93.22
52839;BME280;39219;53.678;9.856;2023-04-15T00:42:45;76828.28;;;-147.77;92.71
52839;BME280;39219;53.678;9.856;2023-04-15T00:45:12;76818.16;;;-147.77;93.45
52839;BME280;39219;53.678;9.856;2023-04-15T00:47:40;76822.19;;;-147.77;93.31
52839;BME280;39219;53.678;9.856;2023-04-15T00:50:08;76816.13;;;-147.77;93.87
52839;BME280;39219;53.678;9.856;2023-04-15T00:52:34;76816.13;;;-147.77;93.62
52839;BME280;39219;53.678;9.856;2023-04-15T00:55:01;76814.09;;;-147.77;94.21
52839;BME280;39219;53.678;9.856;2023-04-15T00:57:29;76814.09;;;-147.77;93.92
52839;BME280;39219;53.678;9.856;2023-04-15T00:59:57;76812.09;;;-147.77;94.08
52839;BME280;39219;53.678;9.856;2023-04-15T01:02:24;76814.09;;;-147.77;93.71
52839;BME280;39219;53.678;9.856;2023-04-15T01:04:50;76810.06;;;-147.77;94.59
52839;BME280;39219;53.678;9.856;2023-04-15T01:07:17;76818.16;;;-147.77;94.20
52839;BME280;39219;53.678;9.856;2023-04-15T01:09:43;76822.19;;;-147.77;94.39
52839;BME280;39219;53.678;9.856;2023-04-15T01:12:11;76816.13;;;-147.77;94.56
52839;BME280;39219;53.678;9.856;2023-04-15T01:14:39;76820.19;;;-147.77;94.57
52839;BME280;39219;53.678;9.856;2023-04-15T01:17:07;76816.13;;;-147.77;95.32
52839;BME280;39219;53.678;9.856;2023-04-15T01:19:35;76818.16;;;-147.77;94.91
52839;BME280;39219;53.678;9.856;2023-04-15T01:22:02;76812.09;;;-147.77;95.35
52839;BME280;39219;53.678;9.856;2023-04-15T01:24:30;76818.16;;;-147.77;94.52
52839;BME280;39219;53.678;9.856;2023-04-15T01:26:58;76818.16;;;-147.77;95.51
52839;BME280;39219;53.678;9.856;2023-04-15T01:29:25;76810.06;;;-147.77;95.66
52839;BME280;39219;53.678;9.856;2023-04-15T01:31:53;76812.09;;;-147.77;96.21
52839;BME280;39219;53.678;9.856;2023-04-15T01:34:20;76814.09;;;-147.77;95.94
52839;BME280;39219;53.678;9.856;2023-04-15T01:36:47;76820.19;;;-147.77;96.02
52839;BME280;39219;53.678;9.856;2023-04-15T01:39:13;76810.06;;;-147.77;96.60
52839;BME280;39219;53.678;9.856;2023-04-15T01:41:40;76820.19;;;-147.77;96.25
52839;BME280;39219;53.678;9.856;2023-04-15T01:44:08;76810.06;;;-147.77;96.53
52839;BME280;39219;53.678;9.856;2023-04-15T01:46:35;76801.97;;;-147.77;96.98
52839;BME280;39219;53.678;9.856;2023-04-15T01:49:02;76795.91;;;-147.77;97.02
52839;BME280;39219;53.678;9.856;2023-04-15T01:51:28;76799.94;;;-147.77;96.89
52839;BME280;39219;53.678;9.856;2023-04-15T01:53:55;76793.88;;;-147.77;97.35
52839;BME280;39219;53.678;9.856;2023-04-15T01:56:21;76793.88;;;-147.77;97.27
52839;BME280;39219;53.678;9.856;2023-04-15T01:58:49;76793.88;;;-147.77;97.29
52839;BME280;39219;53.678;9.856;2023-04-15T02:01:17;76795.91;;;-147.77;97.93
52839;BME280;39219;53.678;9.856;2023-04-15T02:03:45;76808.03;;;-147.77;97.72
52839;BME280;39219;53.678;9.856;2023-04-15T02:06:11;76797.94;;;-147.77;98.12
52839;BME280;39219;53.678;9.856;2023-04-15T02:08:38;76804.00;;;-147.77;98.06
52839;BME280;39219;53.678;9.856;2023-04-15T02:11:05;76797.94;;;-147.77;98.11
52839;BME280;39219;53.678;9.856;2023-04-15T02:13:31;76795.91;;;-147.77;98.58
52839;BME280;39219;53.678;9.856;2023-04-15T02:15:58;76791.84;;;-147.77;98.49
52839;BME280;39219;53.678;9.856;2023-04-15T02:18:26;76789.84;;;-147.77;98.13
52839;BME280;39219;53.678;9.856;2023-04-15T02:20:52;76783.75;;;-147.77;98.47
52839;BME280;39219;53.678;9.856;2023-04-15T02:23:19;76783.75;;;-147.77;98.40
52839;BME280;39219;53.678;9.856;2023-04-15T02:25:46;76783.75;;;-147.77;98.75
52839;BME280;39219;53.678;9.856;2023-04-15T02:28:12;76783.75;;;-147.77;98.66
52839;BME280;39219;53.678;9.856;2023-04-15T02:30:39;76783.75;;;-147.77;98.71
52839;BME280;39219;53.678;9.856;2023-04-15T02:33:05;76793.88;;;-147.77;98.46
52839;BME280;39219;53.678;9.856;2023-04-15T02:35:33;76789.84;;;-147.77;98.98
52839;BME280;39219;53.678;9.856;2023-04-15T02:38:03;76783.75;;;-147.77;99.18
52839;BME280;39219;53.678;9.856;2023-04-15T02:40:29;76787.81;;;-147.77;98.86
52839;BME280;39219;53.678;9.856;2023-04-15T02:42:56;76785.78;;;-147.77;98.93
52839;BME280;39219;53.678;9.856;2023-04-15T02:45:23;76781.75;;;-147.77;99.03
52839;BME280;39219;53.678;9.856;2023-04-15T02:47:51;76779.72;;;-147.77;98.88
52839;BME280;39219;53.678;9.856;2023-04-15T02:50:18;76789.84;;;-147.77;98.50
52839;BME280;39219;53.678;9.856;2023-04-15T02:52:46;76783.75;;;-147.77;98.96
52839;BME280;39219;53.678;9.856;2023-04-15T02:55:12;76779.72;;;-147.77;99.14
52839;BME280;39219;53.678;9.856;2023-04-15T02:57:39;76781.75;;;-147.77;98.70
52839;BME280;39219;53.678;9.856;2023-04-15T03:00:06;76783.75;;;-147.77;99.19
52839;BME280;39219;53.678;9.856;2023-04-15T03:02:35;76783.75;;;-147.77;98.95
52839;BME280;39219;53.678;9.856;2023-04-15T03:05:03;76783.75;;;-147.77;98.77
52839;BME280;39219;53.678;9.856;2023-04-15T03:07:30;76781.75;;;-147.77;98.93
52839;BME280;39219;53.678;9.856;2023-04-15T03:09:57;76777.69;;;-147.77;99.44
52839;BME280;39219;53.678;9.856;2023-04-15T03:12:24;76767.59;;;-147.77;99.36
52839;BME280;39219;53.678;9.856;2023-04-15T03:14:50;76765.56;;;-147.77;99.20
52839;BME280;39219;53.678;9.856;2023-04-15T03:17:17;76767.59;;;-147.77;99.23
52839;BME280;39219;53.678;9.856;2023-04-15T03:19:43;76769.59;;;-147.77;99.35
52839;BME280;39219;53.678;9.856;2023-04-15T03:22:10;76771.63;;;-147.77;99.69
52839;BME280;39219;53.678;9.856;2023-04-15T03:24:36;76763.53;;;-147.77;99.80
52839;BME280;39219;53.678;9.856;2023-04-15T03:27:04;76763.53;;;-147.77;99.52
52839;BME280;39219;53.678;9.856;2023-04-15T03:29:32;76771.63;;;-147.77;99.67
52839;BME280;39219;53.678;9.856;2023-04-15T03:31:58;76759.50;;;-147.77;99.96
52839;BME280;39219;53.678;9.856;2023-04-15T03:34:25;76761.50;;;-147.77;100.00
52839;BME280;39219;53.678;9.856;2023-04-15T03:36:51;76765.56;;;-147.77;100.00
52839;BME280;39219;53.678;9.856;2023-04-15T03:39:18;76757.47;;;-147.77;100.00
52839;BME280;39219;53.678;9.856;2023-04-15T03:41:44;76759.50;;;-147.77;100.00
52839;BME280;39219;53.678;9.856;2023-04-15T03:44:12;76759.50;;;-147.77;100.00
52839;BME280;39219;53.678;9.856;2023-04-15T03:46:39;76765.56;;;-147.77;100.00
52839;BME280;39219;53.678;9.856;2023-04-15T03:49:05;76759.50;;;-147.77;100.00
52839;BME280;39219;53.678;9.856;2023-04-15T03:51:32;76751.41;;;-147.77;100.00
52839;BME280;39219;53.678;9.856;2023-04-15T03:53:58;76751.41;;;-147.77;100.00
52839;BME280;39219;53.678;9.856;2023-04-15T03:56:26;76747.34;;;-147.77;100.00
52839;BME280;39219;53.678;9.856;2023-04-15T03:58:52;76753.41;;;-147.77;100.00
52839;BME280;39219;53.678;9.856;2023-04-15T04:01:20;76757.47;;;-147.77;100.00
52839;BME280;39219;53.678;9.856;2023-04-15T04:03:46;76753.41;;;-147.77;100.00
52839;BME280;39219;53.678;9.856;2023-04-15T04:06:13;76749.38;;;-147.77;100.00
52839;BME280;39219;53.678;9.856;2023-04-15T04:08:41;76755.44;;;-147.77;100.00
52839;BME280;39219;53.678;9.856;2023-04-15T04:11:07;76759.50;;;-147.77;100.00
52839;BME280;39219;53.678;9.856;2023-04-15T04:13:33;76759.50;;;-147.77;100.00
52839;BME280;39219;53.678;9.856;2023-04-15T04:16:00;76765.56;;;-147.77;100.00
52839;BME280;39219;53.678;9.856;2023-04-15T04:18:28;76767.59;;;-147.77;100.00
52839;BME280;39219;53.678;9.856;2023-04-15T04:20:54;76761.50;;;-147.77;100.00
52839;BME280;39219;53.678;9.856;2023-04-15T04:23:21;76755.44;;;-147.77;100.00
52839;BME280;39219;53.678;9.856;2023-04-15T04:25:47;76745.31;;;-147.77;100.00
52839;BME280;39219;53.678;9.856;2023-04-15T04:28:14;76751.41;;;-147.77;100.00
52839;BME280;39219;53.678;9.856;2023-04-15T04:30:40;76749.38;;;-147.77;100.00
52839;BME280;39219;53.678;9.856;2023-04-15T04:33:07;76761.50;;;-147.77;100.00
52839;BME280;39219;53.678;9.856;2023-04-15T04:35:35;76757.47;;;-147.77;100.00
52839;BME280;39219;53.678;9.856;2023-04-15T04:38:02;76745.31;;;-147.77;100.00
52839;BME280;39219;53.678;9.856;2023-04-15T04:40:29;76749.38;;;-147.77;100.00
52839;BME280;39219;53.678;9.856;2023-04-15T04:42:55;76745.31;;;-147.77;100.00
52839;BME280;39219;53.678;9.856;2023-04-15T04:45:21;76751.41;;;-147.77;100.00
52839;BME280;39219;53.678;9.856;2023-04-15T04:47:48;76751.41;;;-147.77;100.00
52839;BME280;39219;53.678;9.856;2023-04-15T04:50:15;76755.44;;;-147.77;100.00
52839;BME280;39219;53.678;9.856;2023-04-15T04:52:43;76757.47;;;-147.77;100.00
52839;BME280;39219;53.678;9.856;2023-04-15T04:55:09;76753.41;;;-147.77;100.00
52839;BME280;39219;53.678;9.856;2023-04-15T04:57:36;76753.41;;;-147.77;100.00
52839;BME280;39219;53.678;9.856;2023-04-15T05:00:04;76757.47;;;-147.77;100.00
52839;BME280;39219;53.678;9.856;2023-04-15T05:02:32;76749.38;;;-147.77;100.00
52839;BME280;39219;53.678;9.856;2023-04-15T05:04:59;76761.50;;;-147.77;100.00
52839;BME280;39219;53.678;9.856;2023-04-15T05:07:25;76761.50;;;-147.77;100.00
52839;BME280;39219;53.678;9.856;2023-04-15T05:09:53;76761.50;;;-147.77;100.00
52839;BME280;39219;53.678;9.856;2023-04-15T05:12:20;76753.41;;;-147.77;100.00
52839;BME280;39219;53.678;9.856;2023-04-15T05:14:46;76757.47;;;-147.77;100.00
52839;BME280;39219;53.678;9.856;2023-04-15T05:17:13;76751.41;;;-147.77;100.00
52839;BME280;39219;53.678;9.856;2023-04-15T05:19:39;76753.41;;;-147.77;100.00
52839;BME280;39219;53.678;9.856;2023-04-15T05:22:06;76751.41;;;-147.77;100.00
52839;BME280;39219;53.678;9.856;2023-04-15T05:24:32;76743.31;;;-147.77;100.00
52839;BME280;39219;53.678;9.856;2023-04-15T05:27:00;76733.19;;;-147.77;100.00
52839;BME280;39219;53.678;9.856;2023-04-15T05:29:28;76729.16;;;-147.77;100.00
52839;BME280;39219;53.678;9.856;2023-04-15T05:31:54;76725.09;;;-147.77;100.00
52839;BME280;39219;53.678;9.856;2023-04-15T05:34:21;76727.13;;;-147.77;100.00
52839;BME280;39219;53.678;9.856;2023-04-15T05:36:47;76719.03;;;-147.77;100.00
52839;BME280;39219;53.678;9.856;2023-04-15T05:39:14;76712.97;;;-147.77;100.00
52839;BME280;39219;53.678;9.856;2023-04-15T05:41:41;76698.81;;;-147.77;100.00
52839;BME280;39219;53.678;9.856;2023-04-15T05:44:08;76708.91;;;-147.77;100.00
52839;BME280;39219;53.678;9.856;2023-04-15T05:46:35;76712.97;;;-147.77;100.00
52839;BME280;39219;53.678;9.856;2023-04-15T05:49:01;76719.03;;;-147.77;100.00
52839;BME280;39219;53.678;9.856;2023-04-15T05:51:28;76721.06;;;-147.77;100.00
52839;BME280;39219;53.678;9.856;2023-04-15T05:53:55;76721.06;;;-147.77;100.00
52839;BME280;39219;53.678;9.856;2023-04-15T05:56:21;76719.03;;;-147.77;100.00
52839;BME280;39219;53.678;9.856;2023-04-15T05:58:49;76717.00;;;-147.77;100.00
52839;BME280;39219;53.678;9.856;2023-04-15T06:01:17;76710.94;;;-147.77;100.00
52839;BME280;39219;53.678;9.856;2023-04-15T06:03:43;76717.00;;;-147.77;100.00
52839;BME280;39219;53.678;9.856;2023-04-15T06:06:10;76725.09;;;-147.77;100.00
52839;BME280;39219;53.678;9.856;2023-04-15T06:08:36;76710.94;;;-147.77;100.00
52839;BME280;39219;53.678;9.856;2023-04-15T06:11:03;76717.00;;;-147.77;100.00
52839;BME280;39219;53.678;9.856;2023-04-15T06:13:30;76710.94;;;-147.77;100.00
52839;BME280;39219;53.678;9.856;2023-04-15T06:15:56;76719.03;;;-147.77;100.00
52839;BME280;39219;53.678;9.856;2023-04-15T06:18:24;76719.03;;;-147.77;100.00
52839;BME280;39219;53.678;9.856;2023-04-15T06:20:50;76723.06;;;-147.77;100.00
52839;BME280;39219;53.678;9.856;2023-04-15T06:23:17;76727.13;;;-147.77;100.00
52839;BME280;39219;53.678;9.856;2023-04-15T06:25:43;76714.97;;;-147.77;100.00
52839;BME280;39219;53.678;9.856;2023-04-15T06:28:10;76725.09;;;-147.77;100.00
52839;BME280;39219;53.678;9.856;2023-04-15T06:30:36;76719.03;;;-147.77;100.00
52839;BME280;39219;53.678;9.856;2023-04-15T06:33:04;76712.97;;;-147.77;100.00
52839;BME280;39219;53.678;9.856;2023-04-15T06:35:32;76714.97;;;-147.77;100.00
52839;BME280;39219;53.678;9.856;2023-04-15T06:37:59;76727.13;;;-147.77;100.00
52839;BME280;39219;53.678;9.856;2023-04-15T06:40:26;76735.22;;;-147.77;100.00
52839;BME280;39219;53.678;9.856;2023-04-15T06:42:52;76727.13;;;-147.77;100.00
52839;BME280;39219;53.678;9.856;2023-04-15T06:45:18;76727.13;;;-147.77;100.00
52839;BME280;39219;53.678;9.856;2023-04-15T06:47:45;76723.06;;;-147.77;100.00
52839;BME280;39219;53.678;9.856;2023-04-15T06:50:11;76714.97;;;-147.77;100.00
52839;BME280;39219;53.678;9.856;2023-04-15T06:52:40;76714.97;;;-147.77;100.00
52839;BME280;39219;53.678;9.856;2023-04-15T06:55:07;76712.97;;;-147.77;100.00
52839;BME280;39219;53.678;9.856;2023-04-15T06:57:34;76712.97;;;-147.77;100.00
52839;BME280;39219;53.678;9.856;2023-04-15T07:00:00;76702.84;;;-147.77;100.00
52839;BME280;39219;53.678;9.856;2023-04-15T07:02:29;76710.94;;;-147.77;100.00
52839;BME280;39219;53.678;9.856;2023-04-15T07:04:56;76714.97;;;-147.77;100.00
52839;BME280;39219;53.678;9.856;2023-04-15T07:07:22;76706.88;;;-147.77;100.00
52839;BME280;39219;53.678;9.856;2023-04-15T07:09:51;76712.97;;;-147.77;100.00
52839;BME280;39219;53.678;9.856;2023-04-15T07:12:18;76704.88;;;-147.77;100.00
52839;BME280;39219;53.678;9.856;2023-04-15T07:14:44;76694.75;;;-147.77;100.00
52839;BME280;39219;53.678;9.856;2023-04-15T07:17:11;76700.81;;;-147.77;100.00
52839;BME280;39219;53.678;9.856;2023-04-15T07:19:37;76698.81;;;-147.77;100.00
52839;BME280;39219;53.678;9.856;2023-04-15T07:22:04;76700.81;;;-147.77;100.00
52839;BME280;39219;53.678;9.856;2023-04-15T07:24:30;76692.72;;;-147.77;100.00
52839;BME280;39219;53.678;9.856;2023-04-15T07:26:58;76678.56;;;-147.77;100.00
52839;BME280;39219;53.678;9.856;2023-04-15T07:29:26;76684.63;;;-147.77;100.00
52839;BME280;39219;53.678;9.856;2023-04-15T07:31:52;76672.50;;;-147.77;100.00
52839;BME280;39219;53.678;9.856;2023-04-15T07:34:19;76672.50;;;-147.77;100.00
52839;BME280;39219;53.678;9.856;2023-04-15T07:36:45;76674.53;;;-147.77;100.00
52839;BME280;39219;53.678;9.856;2023-04-15T07:39:14;76684.63;;;-147.77;100.00
52839;BME280;39219;53.678;9.856;2023-04-15T07:41:41;76674.53;;;-147.77;100.00
52839;BME280;39219;53.678;9.856;2023-04-15T07:44:09;76682.63;;;-147.77;100.00
52839;BME280;39219;53.678;9.856;2023-04-15T07:46:35;76686.66;;;-147.77;100.00
52839;BME280;39219;53.678;9.856;2023-04-15T07:49:02;76690.72;;;-147.77;100.00
52839;BME280;39219;53.678;9.856;2023-04-15T07:51:29;76684.63;;;-147.77;100.00
52839;BME280;39219;53.678;9.856;2023-04-15T07:53:56;76674.53;;;-147.77;100.00
52839;BME280;39219;53.678;9.856;2023-04-15T07:56:23;76676.53;;;-147.77;100.00
52839;BME280;39219;53.678;9.856;2023-04-15T07:58:50;76670.47;;;-147.77;100.00
52839;BME280;39219;53.678;9.856;2023-04-15T08:01:18;76682.63;;;-147.77;99.99
52839;BME280;39219;53.678;9.856;2023-04-15T08:03:45;76666.44;;;-147.77;100.00
52839;BME280;39219;53.678;9.856;2023-04-15T08:06:12;76664.41;;;-147.77;99.74
52839;BME280;39219;53.678;9.856;2023-04-15T08:08:39;76656.31;;;-147.77;99.48
52839;BME280;39219;53.678;9.856;2023-04-15T08:11:05;76644.19;;;-147.77;99.78
52839;BME280;39219;53.678;9.856;2023-04-15T08:13:32;76654.28;;;-147.77;97.92
52839;BME280;39219;53.678;9.856;2023-04-15T08:16:18;76646.19;;;-147.77;98.59
52839;BME280;39219;53.678;9.856;2023-04-15T08:18:45;76654.28;;;-147.77;98.10
52839;BME280;39219;53.678;9.856;2023-04-15T08:21:12;76654.28;;;-147.77;97.99
52839;BME280;39219;53.678;9.856;2023-04-15T08:23:38;76658.34;;;-147.77;97.88
52839;BME280;39219;53.678;9.856;2023-04-15T08:26:05;76648.22;;;-147.77;97.76
52839;BME280;39219;53.678;9.856;2023-04-15T08:28:31;76650.25;;;-147.77;98.02
52839;BME280;39219;53.678;9.856;2023-04-15T08:30:58;76638.09;;;-147.77;97.48
52839;BME280;39219;53.678;9.856;2023-04-15T08:33:26;76648.22;;;-147.77;97.83
52839;BME280;39219;53.678;9.856;2023-04-15T08:35:53;76660.38;;;-147.77;97.29
52839;BME280;39219;53.678;9.856;2023-04-15T08:38:19;76670.47;;;-147.77;97.71
52839;BME280;39219;53.678;9.856;2023-04-15T08:40:46;76676.53;;;-147.77;97.46
52839;BME280;39219;53.678;9.856;2023-04-15T08:43:18;76654.28;;;-147.77;97.80
52839;BME280;39219;53.678;9.856;2023-04-15T08:45:47;76650.25;;;-147.77;97.75
52839;BME280;39219;53.678;9.856;2023-04-15T08:48:16;76650.25;;;-147.77;96.81
52839;BME280;39219;53.678;9.856;2023-04-15T08:50:44;76654.28;;;-147.77;96.83
52839;BME280;39219;53.678;9.856;2023-04-15T08:53:11;76654.28;;;-147.77;96.77
52839;BME280;39219;53.678;9.856;2023-04-15T08:55:42;76650.25;;;-147.77;96.42
52839;BME280;39219;53.678;9.856;2023-04-15T08:58:10;76638.09;;;-147.77;96.25
52839;BME280;39219;53.678;9.856;2023-04-15T09:00:38;76646.19;;;-147.77;96.00
52839;BME280;39219;53.678;9.856;2023-04-15T09:03:06;76640.13;;;-147.77;96.16
52839;BME280;39219;53.678;9.856;2023-04-15T09:05:34;76656.31;;;-147.77;96.00
52839;BME280;39219;53.678;9.856;2023-04-15T09:08:02;76658.34;;;-147.77;96.03
52839;BME280;39219;53.678;9.856;2023-04-15T09:10:30;76660.38;;;-147.77;96.23
52839;BME280;39219;53.678;9.856;2023-04-15T09:12:57;76658.34;;;-147.77;96.32
52839;BME280;39219;53.678;9.856;2023-04-15T09:15:24;76654.28;;;-147.77;96.20
52839;BME280;39219;53.678;9.856;2023-04-15T09:17:51;76634.06;;;-147.77;95.89
52839;BME280;39219;53.678;9.856;2023-04-15T09:20:18;76630.00;;;-147.77;95.07
52839;BME280;39219;53.678;9.856;2023-04-15T09:22:47;76613.84;;;-147.77;95.28
52839;BME280;39219;53.678;9.856;2023-04-15T09:25:28;76597.66;;;-147.77;94.71
52839;BME280;39219;53.678;9.856;2023-04-15T09:27:57;76567.31;;;-147.77;94.68
52839;BME280;39219;53.678;9.856;2023-04-15T09:30:24;76555.16;;;-147.77;92.59
52839;BME280;39219;53.678;9.856;2023-04-15T09:32:53;76557.19;;;-147.77;92.33
52839;BME280;39219;53.678;9.856;2023-04-15T09:35:20;76553.16;;;-147.77;92.41
52839;BME280;39219;53.678;9.856;2023-04-15T09:37:47;76541.00;;;-147.77;92.67
52839;BME280;39219;53.678;9.856;2023-04-15T09:40:31;76502.56;;;-147.77;92.62
52839;BME280;39219;53.678;9.856;2023-04-15T09:42:58;76458.06;;;-147.77;91.62
52839;BME280;39219;53.678;9.856;2023-04-15T09:45:26;76447.97;;;-147.77;90.07
52839;BME280;39219;53.678;9.856;2023-04-15T09:47:53;76445.94;;;-147.77;88.76
52839;BME280;39219;53.678;9.856;2023-04-15T09:50:19;76470.22;;;-147.77;88.39
52839;BME280;39219;53.678;9.856;2023-04-15T09:52:46;76452.00;;;-147.77;89.11
52839;BME280;39219;53.678;9.856;2023-04-15T09:55:13;76445.94;;;-147.77;88.57
52839;BME280;39219;53.678;9.856;2023-04-15T09:57:42;76415.59;;;-147.77;88.27
52839;BME280;39219;53.678;9.856;2023-04-15T10:00:10;76393.34;;;-147.77;87.01
52839;BME280;39219;53.678;9.856;2023-04-15T10:02:37;76379.19;;;-147.77;84.97
52839;BME280;39219;53.678;9.856;2023-04-15T10:05:05;76360.97;;;-147.77;85.53
52839;BME280;39219;53.678;9.856;2023-04-15T10:07:33;76290.19;;;-147.77;85.75
52839;BME280;39219;53.678;9.856;2023-04-15T10:09:59;76274.00;;;-147.77;82.30
52839;BME280;39219;53.678;9.856;2023-04-15T10:12:27;76269.94;;;-147.77;81.54
52839;BME280;39219;53.678;9.856;2023-04-15T10:14:58;76269.94;;;-147.77;81.00
52839;BME280;39219;53.678;9.856;2023-04-15T10:17:27;76271.97;;;-147.77;81.77
52839;BME280;39219;53.678;9.856;2023-04-15T10:19:54;76267.94;;;-147.77;80.36
52839;BME280;39219;53.678;9.856;2023-04-15T10:22:21;76255.78;;;-147.77;80.29
52839;BME280;39219;53.678;9.856;2023-04-15T10:24:49;76239.59;;;-147.77;79.79
52839;BME280;39219;53.678;9.856;2023-04-15T10:27:16;76263.88;;;-147.77;79.44
52839;BME280;39219;53.678;9.856;2023-04-15T10:29:43;76243.66;;;-147.77;80.14
52839;BME280;39219;53.678;9.856;2023-04-15T10:32:11;76213.31;;;-147.77;78.11
52839;BME280;39219;53.678;9.856;2023-04-15T10:34:39;76182.97;;;-147.77;77.34
52839;BME280;39219;53.678;9.856;2023-04-15T10:37:08;76154.66;;;-147.77;75.78
52839;BME280;39219;53.678;9.856;2023-04-15T10:39:39;76174.88;;;-147.77;76.91
52839;BME280;39219;53.678;9.856;2023-04-15T10:42:08;76207.25;;;-147.77;75.96
52839;BME280;39219;53.678;9.856;2023-04-15T10:44:35;76201.19;;;-147.77;76.24
52839;BME280;39219;53.678;9.856;2023-04-15T10:47:10;76160.72;;;-147.77;75.21
52839;BME280;39219;53.678;9.856;2023-04-15T10:49:46;76120.28;;;-147.77;74.09
52839;BME280;39219;53.678;9.856;2023-04-15T10:52:14;76102.06;;;-147.77;71.95
52839;BME280;39219;53.678;9.856;2023-04-15T10:54:41;76061.63;;;-147.77;74.04
52839;BME280;39219;53.678;9.856;2023-04-15T10:57:13;76041.38;;;-147.77;72.11
52839;BME280;39219;53.678;9.856;2023-04-15T11:00:10;76063.63;;;-147.77;72.40
52839;BME280;39219;53.678;9.856;2023-04-15T11:02:38;76079.81;;;-147.77;73.84
52839;BME280;39219;53.678;9.856;2023-04-15T11:05:07;76073.75;;;-147.77;71.86
52839;BME280;39219;53.678;9.856;2023-04-15T11:07:38;76039.38;;;-147.77;71.62
52839;BME280;39219;53.678;9.856;2023-04-15T11:13:22;76017.13;;;-147.77;69.10
52839;BME280;39219;53.678;9.856;2023-04-15T11:15:55;76051.50;;;-147.77;68.10
52839;BME280;39219;53.678;9.856;2023-04-15T11:18:25;76053.53;;;-147.77;69.15
52839;BME280;39219;53.678;9.856;2023-04-15T11:20:55;76071.72;;;-147.77;68.89
52839;BME280;39219;53.678;9.856;2023-04-15T11:23:28;76063.63;;;-147.77;69.49
52839;BME280;39219;53.678;9.856;2023-04-15T11:25:55;76089.94;;;-147.77;68.95
52839;BME280;39219;53.678;9.856;2023-04-15T11:28:24;76102.06;;;-147.77;68.44
52839;BME280;39219;53.678;9.856;2023-04-15T11:30:52;76132.41;;;-147.77;69.22
52839;BME280;39219;53.678;9.856;2023-04-15T11:33:20;76128.34;;;-147.77;70.19
52839;BME280;39219;53.678;9.856;2023-04-15T11:35:46;76122.28;;;-147.77;69.42
52839;BME280;39219;53.678;9.856;2023-04-15T11:38:15;76126.34;;;-147.77;68.05
52839;BME280;39219;53.678;9.856;2023-04-15T11:40:42;76120.28;;;-147.77;67.73
52839;BME280;39219;53.678;9.856;2023-04-15T11:43:10;76124.31;;;-147.77;66.75
52839;BME280;39219;53.678;9.856;2023-04-15T11:45:44;76112.19;;;-147.77;66.40
52839;BME280;39219;53.678;9.856;2023-04-15T11:48:13;76130.38;;;-147.77;63.43
52839;BME280;39219;53.678;9.856;2023-04-15T11:50:40;76134.44;;;-147.77;63.34
52839;BME280;39219;53.678;9.856;2023-04-15T11:53:08;76154.66;;;-147.77;62.37
52839;BME280;39219;53.678;9.856;2023-04-15T11:55:43;76152.63;;;-147.77;61.60
52839;BME280;39219;53.678;9.856;2023-04-15T11:58:13;76164.78;;;-147.77;61.04
52839;BME280;39219;53.678;9.856;2023-04-15T12:00:41;76187.03;;;-147.77;59.66
52839;BME280;39219;53.678;9.856;2023-04-15T12:03:21;76195.09;;;-147.77;59.81
52839;BME280;39219;53.678;9.856;2023-04-15T12:06:08;76182.97;;;-147.77;60.16
52839;BME280;39219;53.678;9.856;2023-04-15T12:08:59;76162.75;;;-147.77;60.56
52839;BME280;39219;53.678;9.856;2023-04-15T12:11:29;76176.91;;;-147.77;58.09
52839;BME280;39219;53.678;9.856;2023-04-15T12:13:58;76193.09;;;-147.77;58.45
52839;BME280;39219;53.678;9.856;2023-04-15T12:16:28;76195.09;;;-147.77;57.49
52839;BME280;39219;53.678;9.856;2023-04-15T12:18:56;76211.28;;;-147.77;57.43
52839;BME280;39219;53.678;9.856;2023-04-15T12:21:24;76215.34;;;-147.77;58.89
52839;BME280;39219;53.678;9.856;2023-04-15T12:23:52;76211.28;;;-147.77;58.91
52839;BME280;39219;53.678;9.856;2023-04-15T12:26:25;76197.13;;;-147.77;58.88
52839;BME280;39219;53.678;9.856;2023-04-15T12:28:54;76178.94;;;-147.77;58.46
52839;BME280;39219;53.678;9.856;2023-04-15T12:31:21;76158.69;;;-147.77;58.04
52839;BME280;39219;53.678;9.856;2023-04-15T12:33:48;76164.78;;;-147.77;57.32
52839;BME280;39219;53.678;9.856;2023-04-15T12:36:15;76168.81;;;-147.77;56.88
52839;BME280;39219;53.678;9.856;2023-04-15T12:38:41;76168.81;;;-147.77;56.53
52839;BME280;39219;53.678;9.856;2023-04-15T12:41:08;76205.22;;;-147.77;56.85